Mindoro Star — V7RE6 — position and weather

sailwx.info

Track history (hours):
 
Tides and Currents Weather Stations Pressure Air Temp Water Temp Dewpoint Dewpoint Depression Visibility Wind Speed Wind Dir Waves Ship Positions

Mindoro Star

Last reported at 2016-Sep-28 03:33 UTC. Time now 2016-Sep-28 08:34 UTC.
Position N 32°08' W 119°42'.

Length 238 m; draft 12.3 m.

Type: Tanker. MMSI: 538003490.

Date/timePositionNaut miles runAvg speedWind from/ knotsBaromVisibWave heightAir tempDewpointWater temp
2016-Sep-28 03:33N 32°08' W 119°42'1 1.3
2016-Sep-28 02:33N 32°09' W 119°43'1 1.2
2016-Sep-28 01:33N 32°10' W 119°44'2 1.2
2016-Sep-27 23:33N 32°11' W 119°47'99 2.8
2016-Sep-26 11:28N 30°35' W 119°16'7 0.5
2016-Sep-25 21:21N 30°42' W 119°15'11 2.8
2016-Sep-25 17:33N 30°35' W 119°06'1513.0
2016-Sep-25 16:24N 30°24' W 118°54'9 1.9
2016-Sep-25 11:29N 30°18' W 118°46'3 0.8
2016-Sep-25 07:32N 30°21' W 118°45'2 0.8
2016-Sep-25 04:33N 30°24' W 118°46'7 0.8
2016-Sep-24 19:32N 30°31' W 118°45'1 0.8
2016-Sep-24 17:32N 30°33' W 118°46'1 0.8
2016-Sep-24 16:33N 30°33' W 118°46'2 0.8
2016-Sep-24 14:33N 30°35' W 118°46'1 0.7
2016-Sep-24 12:33N 30°36' W 118°46'9 1.0
2016-Sep-24 03:31N 30°46' W 118°44'2 1.2
2016-Sep-24 02:04N 30°47' W 118°44'1 1.0
2016-Sep-24 01:33N 30°48' W 118°44'26 4.3
2016-Sep-23 19:33N 30°40' W 118°15'3 1.3
2016-Sep-23 17:33N 30°42' W 118°18'19 1.4
2016-Sep-23 04:25N 30°51' W 118°37'1 1.7
2016-Sep-23 03:33N 30°52' W 118°39'2 1.6
2016-Sep-23 02:33N 30°52' W 118°40'2 1.4
2016-Sep-23 01:25N 30°52' W 118°42'1 1.3
2016-Sep-23 00:33N 30°53' W 118°43'4 3.4
2016-Sep-22 23:30N 30°50' W 118°41'22 2.0
2016-Sep-22 12:33N 30°28' W 118°33'7 0.7
2016-Sep-22 03:33N 30°35' W 118°33'3 0.8
2016-Sep-22 00:33N 30°37' W 118°34'  
Track history (hours):
 
Tides and Currents Weather Stations Pressure Air Temp Water Temp Dewpoint Dewpoint Depression Visibility Wind Speed Wind Dir Waves Ship Positions

Mindoro Star

Last reported at 2016-Sep-28 03:33 UTC. Time now 2016-Sep-28 08:34 UTC.
Position N 32°08' W 119°42'.

Length 238 m; draft 12.3 m.

Type: Tanker. MMSI: 538003490.

Date/timePositionNaut miles runAvg speedWind from/ knotsBaromVisibWave heightAir tempDewpointWater temp
2016-Sep-28 03:33N 32°08' W 119°42'1 1.3
2016-Sep-28 02:33N 32°09' W 119°43'1 1.2
2016-Sep-28 01:33N 32°10' W 119°44'2 1.2
2016-Sep-27 23:33N 32°11' W 119°47'99 2.8
2016-Sep-26 11:28N 30°35' W 119°16'7 0.5
2016-Sep-25 21:21N 30°42' W 119°15'11 2.8
2016-Sep-25 17:33N 30°35' W 119°06'1513.0
2016-Sep-25 16:24N 30°24' W 118°54'9 1.9
2016-Sep-25 11:29N 30°18' W 118°46'3 0.8
2016-Sep-25 07:32N 30°21' W 118°45'2 0.8
2016-Sep-25 04:33N 30°24' W 118°46'7 0.8
2016-Sep-24 19:32N 30°31' W 118°45'1 0.8
2016-Sep-24 17:32N 30°33' W 118°46'1 0.8
2016-Sep-24 16:33N 30°33' W 118°46'2 0.8
2016-Sep-24 14:33N 30°35' W 118°46'1 0.7
2016-Sep-24 12:33N 30°36' W 118°46'9 1.0
2016-Sep-24 03:31N 30°46' W 118°44'2 1.2
2016-Sep-24 02:04N 30°47' W 118°44'1 1.0
2016-Sep-24 01:33N 30°48' W 118°44'26 4.3
2016-Sep-23 19:33N 30°40' W 118°15'3 1.3
2016-Sep-23 17:33N 30°42' W 118°18'19 1.4
2016-Sep-23 04:25N 30°51' W 118°37'1 1.7
2016-Sep-23 03:33N 30°52' W 118°39'2 1.6
2016-Sep-23 02:33N 30°52' W 118°40'2 1.4
2016-Sep-23 01:25N 30°52' W 118°42'1 1.3
2016-Sep-23 00:33N 30°53' W 118°43'4 3.4
2016-Sep-22 23:30N 30°50' W 118°41'22 2.0
2016-Sep-22 12:33N 30°28' W 118°33'7 0.7
2016-Sep-22 03:33N 30°35' W 118°33'3 0.8
2016-Sep-22 00:33N 30°37' W 118°34'  

Dump ship's entire track history